Yarrawonga, Victoria

4:00 PM AEDT on March 05, 2015 (GMT +1100)
Mulwala NSW | Change Station
CLOSE
Current Station
Personal Weather Station
Location: Mulwala, NEW SOUTH WALES
Elevation: 443 ft
Nearby Weather Stations

Elev 443 ft 35.99 °S, 146.00 °E | Updated 11 seconds ago

Clear
Clear
72.7 °F
Feels Like 75 °F
N
5.8
Wind Variable Wind from SSE
Gusts 7.4 mph

Today
High -- | Low -- °F
--% Chance of Precip.
Yesterday
High -- | Low -- °F
Precip. -- in
7:05 AM 7:49 PM
Full, 100% visible
Pressure 29.92 in
Visibility 6.2 miles
Clouds
Heat Index 75 °F
Dew Point 32 °F
Humidity 22%
Rainfall in
Snow Depth Not available.
UV 5.0 out of 12
Pollen Not available.
Air Quality Not available.
Flu Activity Not available.
METAR YMAY 050400Z AUTO 24015KT 9999 // NCD 22/01 Q1013

More Conditions Fewer Conditions

Pressure 29.92 in
Visibility 6.2 miles
Clouds
Heat Index 75 °F
Dew Point 32 °F
Humidity 22%
Rainfall in
Snow Depth Not available.
UV 5.0 out of 12
Pollen Not available.
Air Quality Not available.
Flu Activity Not available.
METAR YMAY 050400Z AUTO 24015KT 9999 // NCD 22/01 Q1013

More Conditions Fewer Conditions

10-Day Weather Forecast

Almanac

Astronomy

Mar. 05, 2015 Rise Set
Actual Time
Civil Twilight
Nautical Twilight
Astronomical Twilight
Moon
Length of Visible Light
Length of Day
Tomorrow will be .
, % of the Moon is Illuminated

Today's Extremes

Country Highs Country Lows

Community

WunderPhotos

Upload Photos

1,802,684 photos uploaded!

WunderBlogs® & News

Nearby

Air Quality

  Air Quality AQ Index Pollutant
Not available.

Snow Depth

Station Depth Elevation

Earthquake Activity

City Distance Mag. Time & Date
Minimum magnitude displayed is 2.5.

Coastal Water Temperatures

Place Temperature

Nearby Weather Stations